Date,TemperatureHighF,TemperatureAvgF,TemperatureLowF,DewpointHighF,DewpointAvgF,DewpointLowF,HumidityHigh,HumidityAvg,HumidityLow,PressureMaxIn,PressureMinIn,WindSpeedMaxMPH,WindSpeedAvgMPH,GustSpeedMaxMPH,PrecipitationSumIn
2014-1-1,15.1,12.7,11.1,9.2,6.3,4.8,80,75,74,30.34,30.16,0,0,0,0.00
2014-1-2,14.9,11.1,2.1,9.6,5.8,-3.7,81,79,76,30.19,30.02,0,0,0,0.00
2014-1-3,18.5,5.0,-4.7,7.1,-6.1,-10.4,76,61,45,30.37,30.11,0,0,0,0.00
2014-1-4,31.5,20.2,8.6,17.1,4.7,-7.9,67,51,44,30.11,29.87,0,0,0,0.00
2014-1-5,31.1,26.8,18.9,27.4,22.6,17.3,95,84,68,30.02,29.52,0,0,0,0.00
2014-1-6,18.9,3.0,-15.7,17.4,0.8,-17.8,94,90,90,30.02,29.52,0,0,0,0.00
2014-1-7,3.2,-7.0,-15.5,0.9,-9.1,-17.6,90,90,90,30.25,30.02,0,0,0,0.00
2014-1-8,19.0,5.8,-5.3,11.9,1.2,-7.4,90,82,69,30.43,30.25,0,0,0,0.00
2014-1-9,22.1,10.3,-1.3,17.0,4.3,-7.6,85,76,68,30.52,30.25,0,0,0,0.00
2014-1-10,35.4,29.9,20.8,34.9,28.0,17.0,98,92,85,30.25,29.69,0,0,0,0.43
2014-1-11,41.4,37.2,33.1,40.8,36.1,27.3,98,96,79,29.69,29.31,0,0,0,0.35
2014-1-12,39.0,33.5,31.1,30.2,26.2,23.4,84,75,57,29.90,29.63,0,0,0,0.00
2014-1-13,42.1,38.3,34.7,34.1,30.9,28.6,84,75,65,29.75,29.54,0,0,0,0.00
2014-1-14,39.9,32.7,23.7,31.0,23.7,14.5,85,70,50,29.78,29.63,0,0,0,0.00
2014-1-15,29.5,24.1,16.7,15.8,12.1,7.3,71,60,49,29.96,29.69,0,0,0,0.00
2014-1-16,26.2,21.8,18.1,23.7,15.5,7.7,90,77,62,29.93,29.60,0,0,0,0.00
2014-1-17,33.1,25.6,17.6,25.4,19.8,8.8,91,79,58,29.87,29.60,0,0,0,0.00
2014-1-18,18.3,12.2,5.9,12.0,4.5,-2.1,78,70,68,29.90,29.84,0,0,0,0.00
2014-1-19,27.0,26.5,25.5,19.8,19.1,17.8,74,73,72,29.57,29.52,0,0,0,0.00
2014-1-20,29.1,21.9,10.4,25.8,13.2,2.0,88,69,51,30.02,29.49,0,0,0,0.00
2014-1-21,14.5,5.5,-4.5,5.2,-6.1,-20.0,68,59,45,30.14,30.02,0,0,0,0.00
2014-1-22,9.7,2.0,-6.3,-6.9,-14.0,-21.7,46,46,46,30.14,29.90,0,0,0,0.00
2014-1-23,15.3,7.6,0.0,2.9,-7.4,-13.5,60,49,46,30.40,29.90,0,0,0,0.00
2014-1-24,15.3,4.7,-3.1,9.8,-8.4,-16.5,79,54,52,30.37,29.52,0,0,0,0.00
2014-1-25,26.1,15.9,3.4,23.0,9.2,-8.1,90,75,58,29.72,29.25,0,0,0,0.00
2014-1-26,24.6,10.7,0.0,19.3,1.2,-11.3,84,65,58,29.75,29.37,0,0,0,0.00
2014-1-27,21.7,6.3,-5.6,17.8,3.8,-8.2,90,89,84,30.22,29.40,0,0,0,0.00
2014-1-28,10.6,-2.4,-13.4,7.8,-4.9,-15.7,89,89,89,30.28,30.14,0,0,0,0.00
2014-1-29,19.0,6.5,-6.3,11.2,-3.0,-9.3,89,68,45,30.14,30.02,0,0,0,0.00
2014-1-30,25.7,16.7,5.9,20.7,2.4,-10.0,81,54,46,30.11,29.75,0,0,0,0.00
2014-1-31,33.6,28.7,25.7,23.7,19.4,14.6,81,68,52,30.11,29.81,0,0,0,0.00
2014-2-1,33.1,28.2,24.3,30.7,24.1,15.2,94,85,63,30.11,29.78,0,0,0,0.00
2014-2-2,25.3,21.7,15.8,23.4,16.7,9.5,93,81,64,30.22,29.93,0,0,0,0.00
2014-2-3,29.8,15.1,6.1,13.8,4.2,-6.0,85,63,43,30.34,30.19,0,0,0,0.12
2014-2-4,26.4,16.3,7.3,17.8,4.3,-7.0,81,59,51,30.40,30.11,0,0,0,0.00
2014-2-5,24.8,17.9,6.8,22.9,12.0,-3.0,93,78,63,30.28,29.87,0,0,0,0.00
2014-2-6,19.8,11.2,5.9,13.1,0.7,-6.1,77,62,54,30.31,30.19,0,0,0,0.00
2014-2-7,16.2,5.3,-3.1,0.7,-8.5,-14.9,56,52,47,30.28,30.22,0,0,0,0.00
2014-2-8,19.4,9.7,0.7,7.1,-3.8,-14.8,63,53,47,30.25,30.11,0,0,0,0.00
2014-2-9,25.3,16.3,11.7,12.7,5.1,0.8,77,61,49,30.11,29.96,0,0,0,0.08
2014-2-10,22.1,14.7,8.6,9.6,5.5,2.3,80,67,47,30.25,30.11,0,0,0,0.00
2014-2-11,18.5,10.1,-0.4,1.4,-5.5,-16.2,57,49,45,30.43,30.40,0,0,0,0.00
2014-2-12,23.2,9.1,-3.5,10.2,-6.4,-19.0,71,49,46,30.40,30.05,0,0,0,0.00
2014-2-13,35.8,23.3,10.9,14.2,7.3,-0.2,67,50,41,30.05,29.49,0,0,0,0.04
2014-2-14,28.8,23.4,19.8,22.8,13.8,6.8,85,67,54,29.75,29.43,0,0,0,0.00
2014-2-15,22.6,12.6,4.5,15.8,1.4,-7.3,77,62,44,30.02,29.75,0,0,0,0.00
2014-2-16,28.8,15.8,6.6,14.8,3.1,-7.2,75,57,47,30.31,29.90,0,0,0,0.04
2014-2-17,20.7,12.1,1.6,15.3,2.5,-8.1,80,65,57,30.34,29.57,0,0,0,0.00
2014-2-18,35.6,27.2,18.7,27.8,19.4,14.4,86,73,53,29.96,29.57,0,0,0,0.04
2014-2-19,46.0,36.8,28.6,32.2,24.7,17.8,79,62,42,30.02,29.57,0,0,0,0.00
2014-2-20,36.9,32.1,28.2,36.3,28.7,18.0,98,88,64,30.05,29.40,0,0,0,0.39
2014-2-21,44.2,34.7,30.0,43.7,24.1,10.8,98,67,44,29.75,29.40,0,0,0,0.12
2014-2-22,37.9,32.7,27.5,26.1,14.2,6.7,74,47,36,29.96,29.72,0,0,0,0.00
2014-2-23,32.5,25.1,19.4,12.9,8.6,3.3,62,49,41,30.02,29.93,0,0,0,0.00
2014-2-24,25.3,19.9,14.7,8.8,6.0,3.5,71,54,46,30.11,30.02,0,0,0,0.00
2014-2-25,23.4,16.1,8.8,11.8,4.9,-0.6,74,61,47,30.11,29.96,0,0,0,0.00
2014-2-26,16.0,9.3,0.7,2.7,-4.3,-9.6,61,54,45,30.05,29.60,0,0,0,0.00
2014-2-27,11.5,7.1,-2.4,-5.3,-9.3,-18.0,46,46,46,30.16,29.49,0,0,0,0.00
2014-2-28,19.4,6.7,-6.9,1.4,-9.2,-22.2,54,47,44,30.28,30.05,0,0,0,0.00
2014-3-1,26.8,20.1,11.8,19.4,11.4,-1.6,82,69,54,30.22,30.02,0,0,0,0.00
2014-3-2,20.5,11.9,3.6,11.8,1.9,-11.7,82,65,46,30.31,30.19,0,0,0,0.00
2014-3-3,18.0,5.8,-3.3,-0.3,-10.6,-18.2,48,46,43,30.40,30.28,0,0,0,0.00
2014-3-4,19.2,11.5,0.5,0.4,-6.5,-16.7,46,43,42,30.34,30.16,0,0,0,0.00
2014-3-5,25.9,18.3,10.8,9.8,3.4,-1.8,57,52,45,30.46,30.19,0,0,0,0.00
2014-3-6,31.5,17.8,9.3,11.6,2.6,-2.8,61,51,41,30.46,30.14,0,0,0,0.00
2014-3-7,46.2,28.6,11.5,24.2,13.9,-0.6,76,55,40,30.14,29.87,0,0,0,0.00
2014-3-8,38.5,31.1,20.8,30.5,20.9,10.0,88,66,53,30.14,29.90,0,0,0,0.04
2014-3-9,35.8,26.7,15.6,24.4,15.2,9.4,79,63,43,30.19,29.81,0,0,0,0.00
2014-3-10,52.0,41.9,33.3,32.8,29.1,24.5,73,61,43,29.81,29.54,0,0,0,0.00
2014-3-11,51.4,43.0,37.4,36.0,32.2,26.6,88,67,40,29.75,29.60,0,0,0,0.12
2014-3-12,37.6,23.0,6.6,34.3,18.5,-4.7,98,83,58,29.96,29.54,0,0,0,0.00
2014-3-13,25.2,15.0,0.7,10.1,2.7,-10.3,65,58,45,30.11,29.96,0,0,0,0.00
2014-3-14,49.1,34.1,15.8,30.5,21.3,7.0,82,60,44,29.96,29.54,0,0,0,0.28
2014-3-15,39.2,35.0,25.7,28.7,20.8,9.0,73,57,41,30.22,29.69,0,0,0,0.00
2014-3-16,26.1,18.1,10.0,9.0,1.8,-8.0,58,49,39,30.37,30.19,0,0,0,0.00
2014-3-17,34.5,19.4,7.0,11.4,0.2,-10.8,52,42,35,30.16,29.90,0,0,0,0.00
2014-3-18,47.5,32.9,21.6,27.3,18.8,8.2,71,56,43,29.99,29.90,0,0,0,0.00
2014-3-19,34.7,34.5,34.3,30.7,30.2,30.0,85,84,84,29.78,29.75,0,0,0,0.00
2014-3-20,36.1,34.0,27.9,32.0,22.7,13.0,89,64,47,30.02,29.78,0,0,0,0.00
2014-3-21,44.1,32.4,21.2,27.3,19.2,12.6,81,59,40,30.08,29.69,0,0,0,0.00
2014-3-22,39.2,34.9,27.0,36.0,26.0,13.0,94,71,50,30.16,29.66,0,0,0,0.08
2014-3-23,27.0,21.0,12.7,13.0,3.6,-1.5,56,46,42,30.31,30.16,0,0,0,0.00
2014-3-24,29.5,22.1,12.7,10.4,5.5,0.8,61,49,42,30.28,30.05,0,0,0,0.00
2014-3-25,33.6,22.9,17.1,19.9,9.6,1.9,78,57,41,30.11,29.90,0,0,0,0.00
2014-3-26,32.0,20.7,9.0,10.4,4.5,-3.9,73,50,40,30.31,30.11,0,0,0,0.00
2014-3-27,39.9,32.8,24.1,33.8,22.3,10.0,82,65,53,30.16,29.66,0,0,0,0.00
2014-3-28,48.7,42.7,36.7,44.1,35.9,30.0,86,77,65,30.16,29.57,0,0,0,0.00
2014-3-29,36.7,34.5,31.6,30.2,26.4,22.4,78,72,62,30.16,30.05,0,0,0,0.00
2014-3-30,50.5,36.8,25.5,24.3,19.9,15.1,81,53,33,30.16,30.08,0,0,0,0.00
2014-3-31,58.3,42.8,28.4,30.6,23.2,16.5,70,48,32,30.19,29.99,0,0,0,0.00
2014-4-1,60.8,45.7,37.2,39.2,27.5,18.0,73,50,36,29.99,29.69,0,0,0,0.00
2014-4-2,55.2,42.3,31.8,27.9,22.5,17.9,62,47,31,30.16,29.99,0,0,0,0.00
2014-4-3,38.8,36.0,32.9,33.5,23.4,14.0,87,62,43,30.16,29.81,0,0,0,0.16
2014-4-4,47.5,38.5,35.2,47.0,34.7,28.0,98,86,70,29.81,29.40,0,0,0,0.20
2014-4-5,48.0,37.6,30.2,30.4,21.4,13.9,87,54,36,30.16,29.69,0,0,0,0.00
2014-4-6,56.7,41.6,26.1,26.8,20.5,15.7,72,45,28,30.19,30.02,0,0,0,0.00
2014-4-7,53.1,41.8,33.3,34.1,22.6,18.0,72,47,37,30.02,29.57,0,0,0,0.16
2014-4-10,68.4,58.9,43.2,44.4,37.2,31.2,68,45,34,29.90,29.66,0,0,0,0.00
2014-4-11,67.5,53.4,38.7,33.9,28.7,23.1,71,42,23,30.02,29.90,0,0,0,0.16
2014-4-12,70.9,56.6,42.8,42.7,33.6,24.7,54,43,26,30.08,29.81,0,0,0,0.16
2014-4-13,76.1,61.8,48.0,54.2,48.2,39.1,82,63,43,29.87,29.63,0,0,0,0.16
2014-4-14,69.6,57.1,31.8,55.8,41.6,29.7,92,58,41,29.78,29.43,0,0,0,0.16
2014-4-15,33.8,27.7,23.4,29.8,18.5,6.1,98,71,44,30.19,29.78,0,0,0,0.04
2014-4-16,43.5,31.1,18.9,20.2,13.7,6.0,66,49,39,30.43,30.19,0,0,0,0.08
2014-4-17,63.5,46.5,29.8,34.5,26.8,16.1,71,48,34,30.34,30.19,0,0,0,0.00
2014-4-18,63.9,53.8,42.1,43.1,34.3,27.5,75,49,35,30.31,30.19,0,0,0,0.00
2014-4-19,59.4,45.0,31.5,31.3,26.3,21.7,75,50,32,30.43,30.31,0,0,0,0.00
2014-4-20,72.5,53.3,35.1,37.4,29.7,22.6,70,44,23,30.34,30.11,0,0,0,0.00
2014-4-21,77.4,61.1,43.5,51.3,36.8,27.6,69,42,26,30.11,29.75,0,0,0,0.00
2014-4-22,60.8,50.9,39.7,55.6,38.5,24.5,94,64,41,29.93,29.66,0,0,0,0.04
2014-4-23,54.0,41.2,35.8,28.4,23.2,13.4,70,51,27,30.11,29.93,0,0,0,0.00
2014-4-24,57.0,46.3,35.4,24.3,20.0,15.0,50,36,27,30.16,29.84,0,0,0,0.00
2014-4-25,51.4,45.5,42.1,43.2,32.1,15.9,91,62,31,29.87,29.66,0,0,0,0.20
2014-4-26,56.5,47.5,39.0,40.0,32.3,26.8,82,57,37,30.11,29.75,0,0,0,0.00
2014-4-27,56.8,43.2,31.6,31.4,27.0,24.0,76,55,37,30.16,30.08,0,0,0,0.06
2014-4-28,52.0,50.2,44.1,32.3,29.0,25.7,51,44,38,29.99,29.78,0,0,0,0.06
2014-4-29,73.9,57.3,45.3,67.5,46.3,30.6,97,72,32,29.81,29.57,0,0,0,0.83
2014-4-30,68.9,57.2,51.6,57.9,51.3,48.1,95,82,52,29.84,29.72,0,0,0,0.24
2014-5-1,53.1,48.7,41.7,48.9,38.8,32.4,90,71,47,29.78,29.72,0,0,0,0.00
2014-5-4,53.6,42.0,0.0,27.1,20.7,0.0,51,31,34,30.08,29.99,0,0,0,0.00
2014-5-5,56.1,46.6,37.9,36.8,31.2,24.6,73,56,41,30.08,29.96,0,0,0,0.00
2014-5-6,63.7,50.9,0.0,39.8,32.2,0.0,84,52,34,30.08,29.00,21,1,21,0.00
2014-5-7,64.2,54.4,0.0,46.2,30.3,0.0,60,35,34,29.09,28.91,17,3,17,0.00
2014-5-8,88.3,17.9,0.0,66.8,13.2,0.0,56,11,42,29.93,28.82,26,5,26,0.00
2014-5-9,78.1,70.4,63.9,60.9,56.9,53.3,73,62,48,29.93,29.72,34,10,34,0.12
2014-5-10,74.8,63.5,54.3,54.9,42.4,34.6,74,48,31,29.99,29.81,34,10,34,0.12
2014-5-11,81.1,66.9,48.7,51.7,44.1,36.6,68,45,31,30.08,29.99,21,4,21,0.12
2014-5-12,68.7,66.0,61.5,65.7,60.7,49.1,97,84,51,30.05,29.93,16,2,16,1.22
2014-5-13,84.2,70.1,63.3,70.2,65.6,60.5,98,87,56,30.05,29.90,32,5,32,0.24
2014-5-14,57.2,54.3,51.6,52.2,49.0,46.2,85,82,78,30.05,29.96,17,1,17,0.24
2014-5-15,56.7,52.1,44.8,55.8,48.4,35.6,98,88,70,29.99,29.69,25,5,25,0.55
2014-5-16,59.0,46.8,37.4,36.9,34.2,31.4,81,63,44,30.02,29.96,21,6,21,0.55
2014-5-17,55.6,48.8,43.7,38.4,34.2,30.1,77,58,41,30.19,30.02,22,5,22,0.00
2014-5-18,66.2,54.6,41.7,38.2,34.9,31.1,75,50,33,30.25,30.19,23,5,23,0.00
2014-5-19,70.5,60.1,50.0,39.3,36.3,33.1,53,42,31,30.31,30.14,22,5,22,0.00
2014-5-20,75.9,62.0,52.7,58.6,50.2,39.4,88,66,49,30.22,29.90,16,3,16,0.04
2014-5-21,81.5,70.0,59.7,66.9,58.9,48.3,98,71,38,29.90,29.81,20,3,20,0.08
2014-5-22,69.8,64.1,56.5,54.4,48.0,40.5,78,57,43,30.08,29.84,26,10,26,0.04
2014-5-23,68.2,59.3,49.8,48.5,44.7,40.4,75,59,45,30.16,30.05,31,8,31,0.00
2014-5-24,76.1,64.2,50.7,53.1,47.4,43.8,93,59,33,30.22,30.14,20,2,20,0.00
2014-5-25,80.8,68.5,53.4,54.9,49.2,45.7,84,54,32,30.19,30.08,26,3,26,0.00
2014-5-26,84.2,73.5,60.8,60.5,53.7,50.5,71,52,34,30.11,29.96,24,3,24,0.00
2014-5-27,83.3,72.7,67.1,72.3,65.9,60.3,97,80,56,29.96,29.87,25,3,25,0.63
2014-5-28,68.9,64.9,59.9,68.0,61.5,53.5,98,89,71,30.11,29.93,15,1,15,0.55
2014-5-29,73.9,63.7,52.0,56.2,52.6,48.6,95,70,43,30.19,30.11,22,2,22,0.00
2014-5-30,79.3,66.7,51.6,56.0,52.7,49.8,95,64,40,30.22,30.14,16,2,16,0.00
2014-5-31,79.0,68.8,58.3,56.1,51.6,40.0,78,56,39,30.25,30.19,22,1,22,0.00
2014-6-1,82.4,75.6,60.8,56.3,52.7,47.1,73,46,33,30.19,30.02,23,4,23,0.00
2014-6-2,83.5,71.7,64.0,70.2,64.1,53.5,98,78,60,30.05,29.87,35,5,35,0.79
2014-6-3,78.1,71.0,62.4,69.6,58.9,48.3,98,70,41,29.96,29.84,36,6,36,0.04
2014-6-4,65.8,62.0,58.5,61.2,56.9,50.5,98,84,66,29.96,29.84,12,0,12,0.24
2014-6-5,72.9,63.2,52.2,58.6,46.5,41.0,98,58,34,29.99,29.87,26,4,26,0.00
2014-6-6,76.3,64.5,49.3,55.0,47.7,42.3,85,57,34,30.05,29.99,20,2,20,0.00
2014-6-7,80.6,69.4,55.6,56.3,50.5,42.2,89,55,31,30.08,29.93,16,1,16,0.00
2014-6-8,76.8,67.8,61.2,62.6,53.4,45.7,93,63,34,30.02,29.84,27,3,27,0.08
2014-6-9,78.4,68.5,57.2,59.3,52.7,45.8,94,61,33,30.05,29.96,14,1,14,0.00
2014-6-10,76.1,68.0,58.3,61.2,54.5,49.0,79,62,50,29.99,29.90,12,0,12,0.00
2014-6-11,74.3,67.5,61.2,69.6,64.1,50.1,98,89,54,29.90,29.72,21,1,21,1.30
2014-6-12,74.5,69.1,65.7,69.3,66.1,62.8,98,91,69,29.81,29.72,17,1,17,0.35
2014-6-13,68.0,62.2,51.6,65.1,52.5,45.0,94,72,54,30.05,29.78,30,4,30,0.31
2014-6-14,71.8,60.3,47.5,50.6,47.0,43.8,96,65,37,30.14,30.05,22,3,22,0.31
2014-6-15,78.3,66.9,53.6,57.6,52.2,48.7,91,62,38,30.16,29.99,25,2,25,0.31
2014-6-16,85.3,76.0,65.5,68.3,61.2,56.8,88,63,40,30.08,30.02,20,3,20,0.31
2014-6-17,86.5,77.3,67.5,72.2,65.3,58.0,90,68,49,30.05,29.84,38,6,38,0.31
2014-6-18,78.8,69.6,65.5,72.1,66.6,61.4,98,91,66,30.14,29.96,34,1,34,1.89
2014-6-19,74.8,70.0,65.3,68.3,65.3,57.7,98,86,70,30.16,30.02,18,1,18,0.31
2014-6-20,68.5,62.1,57.0,58.7,55.2,49.5,97,78,66,30.14,29.99,12,0,12,0.31
2014-6-21,77.0,67.0,56.3,61.5,54.2,48.7,98,68,41,29.99,29.90,12,1,12,0.31
2014-6-22,80.1,71.1,64.0,60.3,56.0,50.0,85,61,41,29.99,29.90,17,2,17,0.31
2014-6-23,76.5,69.6,61.0,72.6,64.6,55.5,95,84,72,29.96,29.87,15,0,15,0.31
2014-6-24,75.9,70.9,67.8,73.0,69.2,67.2,98,95,84,29.90,29.87,17,1,17,0.47
2014-6-25,75.9,69.8,64.6,67.8,65.8,63.0,98,88,69,30.02,29.90,17,2,17,0.31
2014-6-26,77.9,70.2,60.8,63.5,61.4,58.4,93,75,55,30.08,30.02,12,1,12,0.31
2014-6-27,82.0,71.4,59.5,62.0,57.1,51.2,79,62,46,30.14,30.08,12,1,12,0.31
2014-6-28,86.4,74.4,63.1,71.7,66.2,58.5,96,77,50,30.14,30.05,22,1,22,0.31
2014-6-29,83.7,76.7,70.5,76.5,69.9,66.7,96,80,59,30.08,29.96,29,3,29,0.31
2014-6-30,84.7,78.0,71.8,73.8,71.2,68.3,95,80,67,29.96,29.78,29,4,29,0.31
2014-7-1,82.0,74.4,66.4,71.4,65.9,60.3,98,77,49,29.78,29.57,34,4,34,0.47
2014-7-2,77.5,71.5,66.2,66.7,60.8,54.8,92,70,51,29.96,29.78,21,4,21,0.47
2014-7-3,70.9,64.7,56.8,61.2,55.8,49.7,93,74,50,30.14,29.93,26,4,26,0.47
2014-7-4,73.4,64.7,53.8,58.4,50.3,42.4,97,64,35,30.28,30.14,24,4,24,0.47
2014-7-5,75.7,67.6,58.1,54.4,50.1,46.3,71,55,37,30.28,30.11,20,2,20,0.47
2014-7-6,78.8,70.8,59.7,66.6,59.7,52.8,84,69,48,30.11,29.75,26,5,26,0.47
2014-7-7,83.3,75.7,69.3,72.8,67.6,59.6,97,77,50,29.78,29.69,26,5,26,0.47
2014-7-8,75.2,70.0,66.2,70.9,63.8,58.1,98,82,57,29.78,29.57,38,4,38,0.79
2014-7-9,72.7,67.0,61.7,61.5,58.3,54.5,96,75,56,30.05,29.78,20,3,20,0.47
2014-7-10,75.4,67.3,57.7,60.0,56.1,52.5,96,70,46,30.19,30.05,13,2,13,0.47
2014-7-11,78.6,69.2,57.2,60.7,57.2,54.4,94,68,47,30.25,30.16,18,1,18,0.47
2014-7-12,83.5,73.5,65.1,71.0,63.8,57.8,94,73,48,30.19,29.93,23,3,23,0.47
2014-7-13,81.1,74.6,68.4,71.5,66.1,57.6,97,77,46,29.93,29.81,25,3,25,0.47
2014-7-14,79.3,70.5,65.3,68.4,60.7,49.6,98,74,37,29.90,29.78,17,2,17,0.47
2014-7-15,69.4,64.2,60.4,62.2,56.1,50.2,94,76,54,29.90,29.72,26,6,26,0.47
2014-7-16,67.5,60.3,53.1,55.6,52.2,49.1,93,76,54,30.02,29.90,22,4,22,0.00
2014-7-17,74.1,65.6,54.7,55.7,52.1,48.9,94,65,42,30.16,30.02,20,3,20,0.00
2014-7-18,75.4,66.5,55.9,57.7,52.3,47.7,90,63,43,30.25,30.16,16,1,16,0.00
2014-7-19,71.1,66.2,60.6,65.7,60.6,49.6,93,82,62,30.16,30.05,11,0,11,0.04
2014-7-20,79.3,70.5,58.8,67.3,59.7,53.5,98,72,42,30.11,30.05,16,1,16,1.93
2014-7-21,83.8,73.7,64.4,63.1,60.5,56.7,92,66,41,30.16,30.11,17,2,17,0.00
2014-7-22,87.3,77.2,64.8,67.9,65.1,59.2,95,68,47,30.14,29.96,26,4,26,0.00
2014-7-23,79.3,71.0,63.1,69.8,61.2,52.8,91,72,58,30.11,29.90,32,6,32,0.00
2014-7-24,73.6,65.2,55.9,55.8,50.9,47.2,91,62,41,30.14,30.05,26,4,26,0.00
2014-7-25,75.9,66.5,54.7,56.9,54.0,51.3,90,66,45,30.11,29.96,20,3,20,0.00
2014-7-26,80.4,70.8,61.0,68.3,61.0,55.3,91,72,48,29.99,29.81,22,3,22,0.00
2014-7-27,84.2,69.9,60.4,71.1,65.6,59.4,98,87,54,29.81,29.60,30,2,30,0.47
2014-7-28,67.6,62.3,54.0,61.7,55.3,48.1,98,79,62,30.02,29.72,36,7,36,0.00
2014-7-29,70.7,60.9,51.4,60.7,53.4,47.5,91,77,61,30.02,29.96,21,3,21,0.00
2014-7-30,72.7,63.7,57.2,60.9,58.3,53.4,98,84,56,30.05,29.99,26,3,26,0.00
2014-7-31,76.8,66.8,55.0,61.3,56.9,51.6,93,72,52,30.08,29.99,22,4,22,0.00
2014-8-1,81.3,71.4,61.9,64.8,61.3,58.6,93,72,50,30.14,30.08,17,2,17,0.00
2014-8-2,76.1,69.1,62.4,67.7,63.5,58.0,94,83,65,30.16,30.11,14,1,14,0.00
2014-8-3,82.8,71.3,58.6,66.2,60.5,57.5,97,72,44,30.14,30.08,19,2,19,0.00
2014-8-4,83.3,71.3,64.8,67.2,62.8,55.7,95,76,48,30.14,30.05,20,2,20,0.00
2014-8-5,76.3,67.5,64.0,68.6,65.4,62.9,98,93,70,30.11,30.05,17,1,17,0.71
2014-8-6,76.1,67.5,58.3,65.6,57.9,49.9,98,75,41,30.11,30.02,17,2,17,0.00
2014-8-7,79.9,69.2,57.6,59.7,56.1,52.4,94,66,40,30.14,30.08,17,2,17,0.00
2014-8-8,77.5,68.8,59.9,64.4,56.8,48.3,93,68,43,30.19,30.11,14,1,14,0.00
2014-8-9,79.0,68.9,57.6,62.6,57.1,52.7,97,69,41,30.16,30.11,8,1,14,0.00
2014-8-10,83.1,72.2,62.4,67.1,62.8,56.9,91,74,53,30.14,30.02,12,1,12,0.00
2014-8-11,71.1,68.6,65.7,68.9,66.7,64.0,98,94,85,30.05,29.72,27,2,27,1.38
2014-8-12,76.3,66.2,61.7,68.7,64.2,59.4,98,94,69,29.87,29.69,30,3,30,0.12
2014-8-13,72.9,64.9,56.5,59.7,53.6,49.7,93,69,45,29.99,29.87,30,6,30,0.00
2014-8-14,68.4,61.0,51.8,52.0,46.8,43.1,87,61,42,30.08,29.99,34,7,34,0.00
2014-8-15,72.3,61.5,49.1,52.2,47.6,44.1,87,62,43,30.08,29.99,22,3,22,0.00
2014-8-16,79.2,68.4,57.0,65.1,56.2,47.7,80,66,50,29.99,29.87,28,4,28,0.00
2014-8-17,75.6,69.1,64.4,67.1,64.2,61.8,96,85,66,30.05,29.93,17,1,17,0.12
2014-8-18,77.4,69.1,61.0,64.9,61.9,59.1,95,79,62,30.02,29.87,12,1,12,0.00
2014-8-19,81.7,70.1,65.3,71.0,66.1,61.8,98,88,66,29.87,29.78,26,3,26,0.51
2014-8-20,79.5,70.4,64.8,70.9,66.2,63.2,98,87,64,29.99,29.81,19,2,19,0.08
2014-8-21,79.0,71.4,64.6,71.7,67.2,63.4,98,87,73,30.02,29.96,15,1,15,1.42
2014-8-22,80.6,73.4,67.5,72.2,69.1,62.8,98,87,69,30.05,29.96,11,0,11,1.42
2014-8-23,77.7,71.8,64.6,68.5,65.0,62.0,95,80,63,30.11,30.02,12,0,12,0.00
2014-8-24,77.2,71.3,66.6,68.8,66.4,64.2,94,85,73,30.14,30.08,14,0,14,0.00
2014-8-25,84.0,74.2,66.4,72.3,68.6,64.7,98,84,65,30.14,30.05,16,1,16,0.00
2014-8-26,87.1,74.2,68.9,73.7,70.0,66.2,98,88,63,30.14,30.02,38,2,38,0.47
2014-8-27,75.2,69.2,64.0,69.0,62.8,57.1,98,82,55,30.16,30.08,20,2,20,0.00
2014-8-28,72.0,65.0,58.5,60.5,53.5,46.6,90,68,41,30.19,30.11,17,2,17,0.00
2014-8-29,74.8,66.5,58.5,60.9,56.9,53.7,92,72,49,30.16,30.05,17,1,17,0.00
2014-8-30,82.6,73.6,65.5,70.3,66.7,60.9,95,80,60,30.05,29.87,29,5,29,0.00
2014-8-31,82.0,74.4,68.5,70.9,68.6,66.5,97,83,61,29.99,29.93,17,2,17,0.00
2014-9-1,82.6,73.1,68.7,72.8,70.1,67.8,98,91,67,29.96,29.75,34,3,34,0.08
2014-9-2,76.6,71.7,65.1,69.9,64.7,56.9,97,80,52,29.99,29.87,17,2,22,0.00
2014-9-3,80.4,70.7,60.8,64.6,61.3,58.3,95,74,50,30.08,29.99,17,2,20,0.00
2014-9-4,85.1,72.8,63.7,71.0,67.2,61.3,97,84,61,30.08,29.99,26,3,26,0.28
2014-9-5,90.1,77.0,69.1,76.4,70.9,67.2,97,83,51,30.08,29.87,38,4,38,0.31
2014-9-6,70.5,66.2,59.4,68.2,58.7,50.9,98,79,52,30.16,29.96,22,4,22,0.12
2014-9-7,73.6,63.6,54.1,56.7,52.7,47.5,94,71,40,30.25,30.16,12,2,12,0.00
2014-9-8,75.9,64.3,53.8,59.7,53.9,48.3,97,73,41,30.22,30.08,17,1,17,0.00
2014-9-9,77.9,67.5,59.7,65.6,59.5,54.0,98,78,49,30.08,29.99,20,2,20,0.00
2014-9-10,73.2,68.8,64.2,72.4,66.7,59.0,98,93,81,30.02,29.60,29,3,29,1.10
2014-9-11,72.7,56.9,52.0,71.8,51.2,46.7,97,81,72,30.22,29.63,26,7,26,0.00
2014-9-12,59.7,54.9,49.8,51.7,49.6,47.2,95,83,66,30.28,30.16,17,2,17,0.00
2014-9-13,56.5,52.2,44.1,52.7,46.4,40.4,98,82,57,30.34,30.11,37,4,37,0.35
2014-9-14,61.3,51.3,40.5,50.0,42.8,39.6,98,76,48,30.34,30.22,17,2,17,0.00
2014-9-15,59.9,54.7,49.5,53.8,49.7,46.2,95,83,71,30.22,30.08,12,1,12,0.00
2014-9-16,64.2,56.1,49.8,53.0,47.8,42.2,98,76,46,30.16,30.08,17,3,17,0.00
2014-9-17,65.7,54.7,43.7,47.8,44.7,41.1,94,71,45,30.08,29.99,17,2,17,0.00
2014-9-18,65.3,56.5,48.7,53.7,49.2,44.2,98,78,54,30.22,30.02,20,4,21,0.00
2014-9-19,66.7,53.2,42.1,50.1,43.4,39.4,98,73,39,30.28,30.05,18,1,18,0.00
2014-9-20,76.6,62.9,52.2,65.5,57.3,49.0,98,83,61,30.05,29.81,26,5,30,0.63
2014-9-21,65.7,60.1,49.8,64.9,56.7,44.2,98,89,64,30.02,29.63,31,8,34,0.79
2014-9-22,60.1,51.9,47.1,45.9,41.1,37.7,90,67,49,30.28,30.02,26,6,26,0.79
2014-9-23,70.0,57.4,46.4,53.9,49.2,44.8,96,76,50,30.37,30.25,16,1,16,0.79
2014-9-24,74.5,59.9,47.8,60.5,51.5,47.0,98,77,44,30.43,30.34,16,1,17,0.79
2014-9-25,74.1,61.3,52.9,57.2,53.2,48.9,98,77,45,30.34,30.28,12,0,12,0.79
2014-9-26,74.3,60.8,49.8,62.9,54.5,49.0,98,82,50,30.34,30.25,11,0,12,0.00
2014-9-27,75.7,62.7,53.4,62.2,54.9,51.3,98,79,45,30.31,30.19,10,1,11,0.79
2014-9-28,75.2,63.5,54.1,59.6,56.4,53.3,98,80,50,30.22,30.08,8,1,10,0.00
2014-9-29,76.6,64.7,54.3,61.5,56.1,53.2,98,76,46,30.08,29.90,12,1,12,0.79
2014-9-30,66.9,55.3,52.0,60.3,51.9,48.5,98,89,75,30.05,29.90,21,6,25,0.24
2014-10-1,66.9,58.6,52.7,55.0,53.2,50.6,98,84,61,30.08,30.02,14,1,14,0.79
2014-10-2,69.6,62.6,55.6,64.0,59.0,53.9,98,89,65,30.05,29.81,12,1,12,0.79
2014-10-3,66.4,61.6,52.3,65.3,58.8,47.8,98,91,75,29.81,29.49,34,4,45,0.31
2014-10-4,52.2,44.8,41.2,47.5,38.6,31.2,97,80,52,29.69,29.63,26,6,26,0.79
2014-10-5,52.7,47.1,42.1,41.9,37.7,32.1,97,72,47,29.75,29.69,34,5,34,0.79
2014-10-6,60.6,51.4,45.5,50.5,45.3,38.7,97,80,53,29.72,29.63,24,3,26,0.79
2014-10-7,58.3,50.5,41.9,52.8,47.6,41.4,98,90,73,29.78,29.66,28,3,28,0.79
2014-10-8,60.1,52.6,46.6,50.2,39.6,30.5,96,65,36,29.99,29.75,31,5,31,0.79
2014-10-9,58.3,49.4,42.3,37.7,35.7,32.8,79,61,39,30.11,29.99,23,3,23,0.79
2014-10-10,56.7,47.5,38.5,42.2,36.8,33.9,94,69,46,30.16,30.08,23,4,23,0.00
2014-10-11,56.7,45.2,37.0,40.7,35.0,30.6,96,71,39,30.25,30.14,17,2,17,0.00
2014-10-12,61.3,47.4,34.3,45.0,37.6,32.2,96,72,43,30.22,30.02,17,1,17,0.00
2014-10-13,66.6,59.6,50.2,66.0,58.4,44.8,98,96,80,30.02,29.84,17,1,17,0.16
2014-10-14,67.8,64.3,58.8,64.3,60.9,58.3,98,89,76,29.84,29.63,34,1,34,0.39
2014-10-15,63.9,59.0,55.8,58.3,55.4,52.6,98,89,69,29.81,29.69,17,1,17,0.16
2014-10-16,60.6,55.9,52.2,57.1,53.3,51.6,98,91,78,29.78,29.69,17,2,17,0.16
2014-10-17,62.2,56.1,51.4,54.0,51.3,46.9,98,85,61,29.69,29.52,26,5,26,0.16
2014-10-18,51.3,45.7,42.4,47.0,40.0,34.9,94,80,71,30.11,29.66,31,8,31,0.16
2014-10-19,52.5,42.5,31.8,36.5,32.3,29.5,94,69,42,30.19,29.96,17,4,17,0.16
2014-10-20,56.8,50.7,45.1,51.0,45.6,36.5,96,83,69,29.96,29.78,21,4,21,0.16
2014-10-21,49.6,46.2,43.7,46.2,41.4,36.1,98,83,74,30.22,29.87,34,9,34,0.16
2014-10-22,55.4,46.7,40.3,41.7,38.9,36.8,90,75,57,30.34,30.19,26,5,26,0.16
2014-10-23,58.8,44.5,35.1,44.6,37.6,34.3,98,79,47,30.28,30.11,17,2,17,0.16
2014-10-24,63.0,48.8,36.9,47.9,41.7,34.9,98,78,50,30.11,29.96,19,2,19,0.16
2014-10-25,67.3,55.7,46.6,54.5,43.5,29.9,98,69,29,29.96,29.75,34,7,34,0.16
2014-10-26,60.8,51.3,43.2,33.7,30.6,28.0,58,45,35,29.96,29.81,26,7,26,0.16
2014-10-27,71.2,54.0,36.1,56.0,41.9,30.2,83,65,39,29.96,29.72,39,2,39,0.16
2014-10-28,67.8,60.6,49.6,60.8,49.4,34.9,97,68,45,29.90,29.72,30,8,30,0.20
2014-10-29,50.0,46.1,42.4,39.8,36.5,34.6,78,69,58,30.08,29.90,24,6,24,0.16
2014-10-30,49.8,43.7,34.2,37.2,34.8,31.6,95,72,53,30.14,29.99,17,2,17,0.16
2014-10-31,45.1,40.7,34.9,40.7,36.8,32.2,94,86,72,30.11,29.87,51,9,51,0.16
2014-11-1,40.5,34.7,27.7,32.4,23.9,19.1,90,65,50,30.34,30.11,46,13,46,0.16
2014-11-2,50.5,34.8,25.2,25.1,21.1,17.9,81,60,35,30.40,30.25,17,5,17,0.00
2014-11-3,59.7,48.0,37.4,34.3,28.1,20.9,55,46,35,30.25,30.02,31,7,31,0.00
2014-11-4,55.4,50.9,43.5,50.3,39.6,29.3,97,68,46,30.05,29.87,34,9,34,0.04
2014-11-5,57.4,45.3,37.6,40.0,34.9,30.1,95,70,41,30.11,29.99,26,5,26,0.00
2014-11-6,48.2,44.1,38.1,46.0,40.0,31.7,93,85,70,29.99,29.72,50,5,50,0.12
2014-11-7,43.3,37.7,34.0,31.7,24.6,20.6,78,60,43,30.11,29.93,34,8,34,0.00
2014-11-8,43.2,39.0,35.8,39.3,33.3,27.6,95,80,67,29.93,29.69,30,8,30,0.08
2014-11-9,43.0,38.9,32.9,32.3,29.5,27.2,84,69,56,29.90,29.78,26,6,26,0.00
2014-11-10,59.7,47.0,38.5,39.7,33.7,29.5,80,61,44,29.93,29.75,26,3,26,0.00
2014-11-11,62.8,48.5,37.6,49.0,37.1,29.7,86,65,49,29.90,29.66,35,10,35,0.00
2014-11-12,37.6,33.3,30.0,29.5,20.5,17.6,73,59,54,30.19,29.90,38,11,38,0.00
2014-11-13,33.8,29.7,23.5,24.6,20.4,16.0,80,68,50,30.16,30.11,21,7,26,0.00
2014-11-14,33.1,27.7,22.1,23.7,20.1,16.9,89,74,52,30.31,30.16,22,8,22,0.00
2014-11-15,33.8,28.3,25.2,21.6,18.1,14.2,82,66,50,30.34,30.19,22,4,22,0.00
2014-11-16,34.5,30.2,27.5,28.9,21.7,16.9,95,71,57,30.19,29.87,22,5,22,0.00
2014-11-17,30.4,25.6,14.0,28.3,19.6,4.1,95,79,57,29.87,29.63,44,7,44,0.00
2014-11-18,21.2,15.3,11.1,7.6,3.7,1.3,66,60,51,30.08,29.78,44,11,44,0.00
2014-11-19,27.5,20.8,12.6,25.8,14.8,1.7,94,78,61,30.08,29.69,30,10,30,0.00
2014-11-20,27.1,21.8,15.6,24.7,18.5,8.8,98,87,55,30.14,29.81,41,10,41,0.00
2014-11-21,30.2,18.7,10.0,11.6,8.6,4.3,81,65,44,30.43,30.14,21,6,21,0.00
2014-11-22,46.4,34.0,18.1,45.7,30.0,9.4,98,86,57,30.31,29.93,26,9,26,0.04
2014-11-23,51.4,47.3,44.2,50.0,45.8,41.7,98,94,85,29.93,29.22,25,5,25,0.91
2014-11-24,58.6,47.2,33.8,55.4,42.6,26.2,98,85,64,29.69,29.07,57,15,57,0.43
2014-11-25,33.8,30.8,29.7,27.8,23.0,20.4,79,72,64,30.19,29.69,35,9,35,0.00
2014-11-26,33.8,31.1,29.1,25.2,22.1,19.9,75,69,64,30.19,30.05,17,3,17,0.00
2014-11-27,32.7,28.4,21.9,23.1,19.5,7.4,81,69,53,30.28,30.08,34,10,34,0.00
2014-11-28,27.9,22.7,16.7,23.5,12.2,3.7,86,64,50,30.31,30.05,26,6,26,0.00
2014-11-29,49.5,38.4,27.9,44.8,30.2,23.4,84,73,50,30.05,29.69,31,8,31,0.00
2014-11-30,58.6,52.0,38.8,53.3,48.1,35.7,92,87,79,30.08,29.69,34,10,34,0.00
2014-12-1,38.7,28.1,19.4,35.7,15.0,6.1,91,59,42,30.61,30.08,32,11,32,0.00
2014-12-2,39.4,28.0,19.6,26.8,18.6,6.4,81,68,54,30.58,30.05,19,5,19,0.00
2014-12-3,38.8,32.4,27.1,29.8,22.7,15.9,89,69,44,30.28,29.99,36,9,36,0.00
2014-12-4,35.1,27.7,23.9,17.8,14.1,12.0,71,57,43,30.43,30.28,17,3,17,0.00
2014-12-5,38.7,34.8,28.6,30.4,25.8,14.9,79,69,56,30.34,30.16,12,1,12,0.00
2014-12-6,39.9,34.7,27.5,32.0,25.3,15.4,84,69,53,30.58,30.16,34,10,34,0.00
2014-12-7,37.8,29.3,23.2,23.9,17.0,14.4,78,61,41,30.67,30.40,22,6,22,0.00
2014-12-8,41.5,35.4,30.2,35.2,26.2,22.1,95,70,48,30.40,30.02,26,5,26,0.12
2014-12-9,38.3,36.2,32.7,36.7,33.3,26.4,98,90,74,30.22,30.02,35,9,35,0.04
2014-12-10,32.7,27.1,23.0,26.8,20.8,16.8,85,77,69,30.25,30.08,38,15,38,0.04
2014-12-11,38.5,28.7,21.0,23.7,15.0,7.3,80,57,39,30.08,30.02,34,15,34,0.04
2014-12-12,34.9,31.6,28.4,30.6,27.9,23.9,94,86,79,30.19,30.08,26,10,31,0.04
2014-12-13,43.0,37.5,32.2,42.5,36.5,30.6,98,96,91,30.16,29.96,31,9,32,0.04
2014-12-14,50.5,46.8,42.8,47.5,45.1,40.4,98,94,87,30.05,29.99,38,7,38,0.04
2014-12-15,48.9,44.7,40.5,47.3,42.7,38.1,98,93,76,30.05,29.81,17,3,17,0.08
2014-12-16,45.5,43.1,36.9,45.0,42.5,34.8,98,98,93,29.87,29.66,35,4,35,0.28
2014-12-17,36.9,31.0,26.8,34.8,22.8,16.2,92,71,62,30.14,29.87,39,14,39,0.00
2014-12-18,31.8,30.0,27.5,29.0,25.4,18.0,93,83,67,30.19,30.11,25,7,25,0.00
2014-12-19,31.3,26.4,21.0,26.4,20.2,16.8,90,77,59,30.31,30.14,21,4,21,0.00
2014-12-20,30.0,27.3,19.9,21.8,19.9,16.1,89,74,63,30.28,30.22,11,0,11,0.00
2014-12-21,34.7,29.8,24.3,25.2,22.3,19.0,86,74,59,30.28,30.16,18,2,18,0.00
2014-12-22,41.4,31.8,24.3,33.8,27.0,21.5,93,83,66,30.16,29.84,16,3,16,0.00
2014-12-23,48.6,41.9,35.6,48.0,41.1,33.9,98,97,92,29.84,29.75,16,2,16,0.12
2014-12-24,46.6,43.2,34.5,46.0,42.7,34.0,98,98,98,29.75,29.19,39,5,39,0.87
2014-12-25,37.9,36.2,32.2,36.3,31.9,28.0,98,85,71,30.11,29.46,30,8,30,0.00
2014-12-26,48.6,37.9,31.6,39.3,34.1,29.5,98,87,61,30.14,30.02,22,5,22,0.00
2014-12-27,47.8,42.5,36.9,46.7,40.7,30.5,98,94,74,30.11,29.90,35,8,35,0.04
2014-12-28,36.9,33.8,27.5,32.0,25.4,19.2,95,72,52,30.16,29.96,25,9,25,0.04
2014-12-29,32.4,25.8,18.7,19.8,13.2,7.1,75,59,46,30.37,30.16,25,6,25,0.04
2014-12-30,23.2,18.5,14.9,9.6,5.2,1.4,68,56,46,30.52,30.37,26,10,26,0.04
2014-12-31,22.8,17.0,12.9,7.2,2.3,-2.3,70,52,44,30.46,30.05,29,9,34,0.04
2015-1-1,30.7,22.9,16.7,13.0,7.3,1.5,57,51,42,30.05,29.87,31,11,31,0.04
2015-1-2,34.3,29.3,25.2,17.6,15.6,12.0,71,56,48,30.31,30.05,25,4,25,0.04